»·PEaware :: N851TX KLAS-KPSP

N851TX :: KLAS-KPSP

FLIGHT INFORMATION

Flight Status: Arrived
Operator: Privately registered:
United States
More flights under this callsign
Pilot: Andrew J. (13363)
Aircraft: Unknown
(TBM9)
More flights by this aircraft type
Origin: KLAS McCarran Intl
United States
Destination: KPSP Palm Springs Intl
United States
More flights between these airports :: More routes between these airports
Route: +LAS HAKMN Q73 LVELL TNP CLOWD1
File this flight plan on PilotEdge
Remarks:
Altitude:
(Current/Filed)
22,000ft
Speed:
(Current/Filed)
315kts
Departed: 03-Aug-18 09:43 PM
Arrived: 03-Aug-18 10:29 PM
Distance/Time
Traveled:
151nm/0:46
Distance/Time
To Go:
Arrived

Flight Plot

Page will automatically refresh every two minutes.

Flight plan parsing failed; only flown route is shown


Map Options




Map Legend


Flown Route
Filed Route
Departure Airport
Arrival Airport
Navaid (VOR, NDB)
Fix

Horizontal Profiles

Position Reports

Time Latitude Longitude Heading Altitude Ground
Speed
03-Aug-18 21:28 36.099817 -115.159223 112 2144ft 0kts
03-Aug-18 21:29 36.099817 -115.159223 112 2144ft 0kts
03-Aug-18 21:30 36.099817 -115.159223 112 2144ft 0kts
03-Aug-18 21:31 36.098990 -115.159644 205 2144ft 4kts
03-Aug-18 21:32 36.098974 -115.159653 204 2144ft 0kts
03-Aug-18 21:33 36.098974 -115.159653 204 2144ft 0kts
03-Aug-18 21:34 36.098974 -115.159653 204 2144ft 0kts
03-Aug-18 21:35 36.098974 -115.159653 204 2144ft 0kts
03-Aug-18 21:36 36.098974 -115.159653 204 2144ft 0kts
03-Aug-18 21:37 36.098974 -115.159653 204 2144ft 0kts
03-Aug-18 21:38 36.098974 -115.159653 204 2144ft 0kts
03-Aug-18 21:39 36.098956 -115.159662 201 2144ft 1kts
03-Aug-18 21:40 36.099825 -115.157645 76 2144ft 6kts
03-Aug-18 21:41 36.099840 -115.157541 83 2144ft 0kts
03-Aug-18 21:42 36.099840 -115.157541 83 2144ft 0kts
03-Aug-18 21:43 36.099832 -115.157316 108 2144ft 7kts
03-Aug-18 21:44 36.085027 -115.165382 206 2403ft 130kts
03-Aug-18 21:45 36.050003 -115.178024 186 4459ft 137kts
03-Aug-18 21:46 36.002694 -115.186019 186 5070ft 206kts
03-Aug-18 21:47 35.951628 -115.194036 186 7335ft 156kts
03-Aug-18 21:48 35.910468 -115.199514 186 9551ft 164kts
03-Aug-18 21:49 35.856049 -115.206410 186 10071ft 231kts
03-Aug-18 21:50 35.787912 -115.215233 186 10051ft 257kts
03-Aug-18 21:51 35.716182 -115.224534 186 10047ft 262kts
03-Aug-18 21:52 35.643371 -115.233955 186 10046ft 263kts
03-Aug-18 21:53 35.573588 -115.244470 192 11042ft 234kts
03-Aug-18 21:54 35.514961 -115.260417 194 12941ft 206kts
03-Aug-18 21:55 35.464973 -115.274149 195 15736ft 165kts
03-Aug-18 21:56 35.426312 -115.284769 198 18221ft 136kts
03-Aug-18 21:57 35.385284 -115.296192 198 20013ft 173kts
03-Aug-18 21:58 35.337356 -115.309322 199 22066ft 179kts
03-Aug-18 21:59 35.287159 -115.323171 199 23609ft 203kts
03-Aug-18 22:00 35.225803 -115.340037 198 23908ft 252kts
03-Aug-18 22:01 35.153653 -115.359754 197 23873ft 276kts
03-Aug-18 22:02 35.077568 -115.380535 197 23834ft 284kts
03-Aug-18 22:03 34.999936 -115.401702 197 23802ft 289kts
03-Aug-18 22:04 34.919916 -115.423558 196 23808ft 301kts
03-Aug-18 22:05 34.841811 -115.444740 194 23813ft 310kts
03-Aug-18 22:06 34.757641 -115.467539 194 23839ft 313kts
03-Aug-18 22:07 34.672415 -115.490599 195 23879ft 314kts
03-Aug-18 22:08 34.587366 -115.513566 195 23945ft 314kts
03-Aug-18 22:09 34.502307 -115.536490 195 23971ft 315kts
03-Aug-18 22:10 34.416900 -115.559457 195 23972ft 316kts
03-Aug-18 22:11 34.331190 -115.582457 195 23972ft 316kts
03-Aug-18 22:12 34.243134 -115.606068 194 22738ft 337kts
03-Aug-18 22:13 34.174354 -115.672339 234 20326ft 327kts
03-Aug-18 22:14 34.120738 -115.756533 234 18009ft 325kts
03-Aug-18 22:15 34.049687 -115.820768 214 15777ft 314kts
03-Aug-18 22:16 33.979558 -115.877404 214 13482ft 296kts
03-Aug-18 22:17 33.913151 -115.931050 214 11277ft 275kts
03-Aug-18 22:18 33.856951 -115.976374 214 10613ft 230kts
03-Aug-18 22:19 33.803097 -116.019736 214 9319ft 235kts
03-Aug-18 22:20 33.748897 -116.063310 214 8198ft 233kts
03-Aug-18 22:21 33.694689 -116.106825 215 7181ft 243kts
03-Aug-18 22:22 33.663949 -116.176476 260 5896ft 251kts
03-Aug-18 22:23 33.675656 -116.258107 291 4455ft 247kts
03-Aug-18 22:24 33.698167 -116.332635 299 3937ft 221kts
03-Aug-18 22:25 33.724852 -116.396071 300 3520ft 203kts
03-Aug-18 22:26 33.757590 -116.444619 321 2635ft 173kts
03-Aug-18 22:27 33.785961 -116.467697 322 1516ft 127kts
03-Aug-18 22:28 33.808160 -116.488252 321 808ft 81kts
03-Aug-18 22:29 33.826599 -116.504980 323 480ft 45kts
03-Aug-18 22:30 33.831133 -116.506984 51 480ft 13kts
03-Aug-18 22:31 33.830346 -116.504368 142 480ft 12kts
03-Aug-18 22:32 33.827235 -116.501600 143 480ft 15kts
03-Aug-18 22:33 33.823151 -116.497659 145 480ft 12kts
03-Aug-18 22:34 33.822581 -116.496726 327 480ft 0kts
03-Aug-18 22:35 33.822632 -116.496770 325 480ft 0kts
03-Aug-18 22:36 33.822632 -116.496770 325 480ft 0kts
03-Aug-18 22:37 33.822632 -116.496770 325 480ft 0kts
03-Aug-18 22:38 33.822632 -116.496770 325 480ft 0kts
03-Aug-18 22:39 33.822632 -116.496770 325 480ft 0kts
03-Aug-18 22:40 33.822632 -116.496770 325 480ft 0kts
03-Aug-18 22:41 33.822632 -116.496770 325 480ft 0kts
03-Aug-18 22:42 33.822632 -116.496770 325 480ft 0kts
03-Aug-18 22:43 33.822632 -116.496770 325 480ft 0kts
03-Aug-18 22:44 33.822632 -116.496770 325 480ft 0kts

Navigation Log

Ident Type
Flight plan parsing failed, navigation log unavailable